»·PEaware :: N468H KLAX-KSNA

N468H :: KLAX-KSNA

FLIGHT INFORMATION

Flight Status: Arrived
Operator: Privately registered:
United States
More flights under this callsign
Pilot: Alexandre A. (27602)
Aircraft: CESSNA 182 SKYLANE
(C182)
More flights by this aircraft type
Origin: KLAX Los Angeles Intl
United States
Destination: KSNA John Wayne-Orange Co
United States
More flights between these airports :: More routes between these airports
Route: +SLI8 SLI
File this flight plan on PilotEdge
Remarks:
Altitude:
(Current/Filed)
4,000ft
Speed:
(Current/Filed)
150kts
Departed: 09-Feb-20 02:39 PM
Arrived: 09-Feb-20 03:14 PM
Distance/Time
Traveled:
31nm/0:35
Distance/Time
To Go:
Arrived

Flight Plot

Page will automatically refresh every two minutes.

Flight plan parsing failed; only flown route is shown


Map Options




Map Legend


Flown Route
Filed Route
Departure Airport
Arrival Airport
Navaid (VOR, NDB)
Fix

Horizontal Profiles

Position Reports

Time Latitude Longitude Heading Altitude Ground
Speed
09-Feb-20 14:08 33.937601 -118.415165 99 129ft 0kts
09-Feb-20 14:09 33.937601 -118.415165 99 129ft 0kts
09-Feb-20 14:10 33.937601 -118.415165 99 129ft 0kts
09-Feb-20 14:11 33.937601 -118.415165 99 129ft 0kts
09-Feb-20 14:12 33.937601 -118.415165 99 129ft 0kts
09-Feb-20 14:13 33.937601 -118.415165 99 129ft 0kts
09-Feb-20 14:14 33.937601 -118.415165 99 129ft 0kts
09-Feb-20 14:15 33.937601 -118.415165 99 129ft 0kts
09-Feb-20 14:16 33.937601 -118.415165 99 129ft 0kts
09-Feb-20 14:17 33.937601 -118.415165 99 129ft 0kts
09-Feb-20 14:18 33.937601 -118.415165 99 129ft 0kts
09-Feb-20 14:19 33.937601 -118.415165 99 129ft 0kts
09-Feb-20 14:20 33.937601 -118.415164 99 129ft 0kts
09-Feb-20 14:21 33.937600 -118.415164 100 129ft 0kts
09-Feb-20 14:22 33.937600 -118.415163 100 129ft 0kts
09-Feb-20 14:23 33.937600 -118.415163 100 129ft 0kts
09-Feb-20 14:24 33.937600 -118.415162 100 129ft 0kts
09-Feb-20 14:25 33.937600 -118.415161 100 129ft 0kts
09-Feb-20 14:26 33.937600 -118.415161 100 129ft 0kts
09-Feb-20 14:28 33.937599 -118.415160 100 129ft 0kts
09-Feb-20 14:29 33.937599 -118.415159 100 129ft 0kts
09-Feb-20 14:30 33.937599 -118.415159 100 129ft 0kts
09-Feb-20 14:31 33.937536 -118.414540 84 129ft 2kts
09-Feb-20 14:32 33.937873 -118.409501 82 129ft 18kts
09-Feb-20 14:33 33.938662 -118.401614 83 129ft 26kts
09-Feb-20 14:34 33.939631 -118.392275 83 129ft 28kts
09-Feb-20 14:35 33.940591 -118.382532 83 129ft 28kts
09-Feb-20 14:36 33.940608 -118.380479 125 129ft 0kts
09-Feb-20 14:37 33.940608 -118.380479 125 129ft 0kts
09-Feb-20 14:38 33.940534 -118.380373 133 129ft 10kts
09-Feb-20 14:39 33.939655 -118.382428 262 129ft 54kts
09-Feb-20 14:40 33.936957 -118.413865 263 924ft 108kts
09-Feb-20 14:41 33.929598 -118.451556 224 1767ft 124kts
09-Feb-20 14:42 33.898585 -118.464270 173 2589ft 128kts
09-Feb-20 14:43 33.862692 -118.458879 172 3393ft 131kts
09-Feb-20 14:44 33.825534 -118.453191 172 4094ft 142kts
09-Feb-20 14:45 33.783265 -118.444839 152 4131ft 159kts
09-Feb-20 14:46 33.747014 -118.413728 142 4129ft 160kts
09-Feb-20 14:47 33.711215 -118.381707 142 4129ft 160kts
09-Feb-20 14:47 33.683154 -118.353006 107 4126ft 158kts
09-Feb-20 14:49 33.684671 -118.292125 82 4129ft 157kts
09-Feb-20 14:50 33.689817 -118.240063 64 4128ft 155kts
09-Feb-20 14:51 33.713893 -118.198294 51 4117ft 149kts
09-Feb-20 14:51 33.732692 -118.163802 66 4130ft 149kts
09-Feb-20 14:52 33.750926 -118.119468 56 4129ft 148kts
09-Feb-20 14:54 33.775426 -118.069801 57 4129ft 148kts
09-Feb-20 14:54 33.792009 -118.033514 63 4130ft 149kts
09-Feb-20 14:55 33.810147 -117.988785 61 4129ft 148kts
09-Feb-20 14:56 33.828428 -117.944092 62 4129ft 148kts
09-Feb-20 14:57 33.846245 -117.899214 59 4129ft 148kts
09-Feb-20 14:58 33.864585 -117.854669 63 4129ft 148kts
09-Feb-20 14:59 33.882483 -117.809746 60 4129ft 148kts
09-Feb-20 15:00 33.901703 -117.765799 61 4127ft 150kts
09-Feb-20 15:01 33.922125 -117.721578 60 4129ft 151kts
09-Feb-20 15:02 33.956510 -117.727055 323 4130ft 149kts
09-Feb-20 15:03 33.992623 -117.746975 25 4131ft 148kts
09-Feb-20 15:04 33.978229 -117.719621 182 4135ft 149kts
09-Feb-20 15:05 33.936826 -117.718692 171 4130ft 149kts
09-Feb-20 15:06 33.896496 -117.727812 216 3762ft 158kts
09-Feb-20 15:07 33.858850 -117.751719 209 3628ft 149kts
09-Feb-20 15:08 33.822263 -117.775633 200 3488ft 156kts
09-Feb-20 15:09 33.781697 -117.801522 208 2386ft 166kts
09-Feb-20 15:10 33.743813 -117.825264 210 1297ft 127kts
09-Feb-20 15:11 33.715924 -117.843144 207 841ft 111kts
09-Feb-20 15:12 33.688516 -117.860376 207 256ft 111kts
09-Feb-20 15:13 33.675848 -117.869959 303 59ft 15kts
09-Feb-20 15:14 33.669984 -117.873989 205 59ft 25kts
09-Feb-20 15:15 33.668874 -117.875274 233 59ft 0kts

Navigation Log

Ident Type
Flight plan parsing failed, navigation log unavailable